sensor_id;sensor_type;location;lat;lon;timestamp;P1;durP1;ratioP1;P2;durP2;ratioP2
54201;SDS011;40108;53.152;5.844;2022-09-13T00:00:34;44.00;;;27.88;;
54201;SDS011;40108;53.152;5.844;2022-09-13T00:03:01;34.88;;;24.23;;
54201;SDS011;40108;53.152;5.844;2022-09-13T00:05:27;33.30;;;22.48;;
54201;SDS011;40108;53.152;5.844;2022-09-13T00:07:53;29.88;;;20.70;;
54201;SDS011;40108;53.152;5.844;2022-09-13T00:10:19;24.42;;;18.95;;
54201;SDS011;40108;53.152;5.844;2022-09-13T00:12:46;23.38;;;17.83;;
54201;SDS011;40108;53.152;5.844;2022-09-13T00:15:12;20.45;;;16.08;;
54201;SDS011;40108;53.152;5.844;2022-09-13T00:17:38;17.63;;;14.07;;
54201;SDS011;40108;53.152;5.844;2022-09-13T00:20:04;18.13;;;15.00;;
54201;SDS011;40108;53.152;5.844;2022-09-13T00:22:30;17.02;;;13.35;;
54201;SDS011;40108;53.152;5.844;2022-09-13T00:24:56;20.60;;;14.23;;
54201;SDS011;40108;53.152;5.844;2022-09-13T00:27:22;17.27;;;13.52;;
54201;SDS011;40108;53.152;5.844;2022-09-13T00:29:48;18.00;;;14.15;;
54201;SDS011;40108;53.152;5.844;2022-09-13T00:32:14;17.35;;;13.88;;
54201;SDS011;40108;53.152;5.844;2022-09-13T00:34:39;16.60;;;13.57;;
54201;SDS011;40108;53.152;5.844;2022-09-13T00:37:05;19.23;;;14.15;;
54201;SDS011;40108;53.152;5.844;2022-09-13T00:39:31;23.75;;;14.60;;
54201;SDS011;40108;53.152;5.844;2022-09-13T00:41:57;17.50;;;14.23;;
54201;SDS011;40108;53.152;5.844;2022-09-13T00:52:40;18.50;;;15.02;;
54201;SDS011;40108;53.152;5.844;2022-09-13T00:55:12;18.25;;;14.52;;
54201;SDS011;40108;53.152;5.844;2022-09-13T00:57:46;20.50;;;15.98;;
54201;SDS011;40108;53.152;5.844;2022-09-13T01:00:13;20.33;;;16.38;;
54201;SDS011;40108;53.152;5.844;2022-09-13T01:02:43;20.90;;;16.73;;
54201;SDS011;40108;53.152;5.844;2022-09-13T01:05:13;22.35;;;16.88;;
54201;SDS011;40108;53.152;5.844;2022-09-13T01:07:42;28.95;;;17.20;;
54201;SDS011;40108;53.152;5.844;2022-09-13T01:10:08;18.85;;;16.60;;
54201;SDS011;40108;53.152;5.844;2022-09-13T01:13:19;22.00;;;17.20;;
54201;SDS011;40108;53.152;5.844;2022-09-13T01:15:20;21.67;;;17.23;;
54201;SDS011;40108;53.152;5.844;2022-09-13T01:17:47;22.40;;;16.63;;
54201;SDS011;40108;53.152;5.844;2022-09-13T01:20:14;23.92;;;17.60;;
54201;SDS011;40108;53.152;5.844;2022-09-13T01:30:41;21.92;;;15.95;;
54201;SDS011;40108;53.152;5.844;2022-09-13T01:35:54;22.70;;;15.50;;
54201;SDS011;40108;53.152;5.844;2022-09-13T01:38:46;20.33;;;15.75;;
54201;SDS011;40108;53.152;5.844;2022-09-13T01:46:45;24.27;;;15.93;;
54201;SDS011;40108;53.152;5.844;2022-09-13T01:52:21;23.23;;;16.23;;
54201;SDS011;40108;53.152;5.844;2022-09-13T01:55:04;26.00;;;16.90;;
54201;SDS011;40108;53.152;5.844;2022-09-13T02:00:25;23.58;;;16.95;;
54201;SDS011;40108;53.152;5.844;2022-09-13T02:05:58;23.50;;;16.83;;
54201;SDS011;40108;53.152;5.844;2022-09-13T02:09:09;24.27;;;16.90;;
54201;SDS011;40108;53.152;5.844;2022-09-13T02:11:32;24.08;;;16.85;;
54201;SDS011;40108;53.152;5.844;2022-09-13T02:16:33;26.55;;;16.45;;
54201;SDS011;40108;53.152;5.844;2022-09-13T02:22:05;23.90;;;16.42;;
54201;SDS011;40108;53.152;5.844;2022-09-13T02:24:33;21.77;;;16.33;;
54201;SDS011;40108;53.152;5.844;2022-09-13T02:27:07;20.80;;;15.90;;
54201;SDS011;40108;53.152;5.844;2022-09-13T02:29:36;20.25;;;16.02;;
54201;SDS011;40108;53.152;5.844;2022-09-13T02:35:13;19.58;;;12.80;;
54201;SDS011;40108;53.152;5.844;2022-09-13T02:37:22;2.53;;;1.67;;
54201;SDS011;40108;53.152;5.844;2022-09-13T02:39:52;1.23;;;0.88;;
54201;SDS011;40108;53.152;5.844;2022-09-13T02:42:43;2.25;;;0.63;;
54201;SDS011;40108;53.152;5.844;2022-09-13T02:45:14;2.20;;;0.70;;
54201;SDS011;40108;53.152;5.844;2022-09-13T02:47:58;2.90;;;0.57;;
54201;SDS011;40108;53.152;5.844;2022-09-13T02:53:40;2.78;;;0.45;;
54201;SDS011;40108;53.152;5.844;2022-09-13T03:01:32;4.72;;;0.65;;
54201;SDS011;40108;53.152;5.844;2022-09-13T03:04:00;8.23;;;0.85;;
54201;SDS011;40108;53.152;5.844;2022-09-13T03:06:27;2.60;;;0.70;;
54201;SDS011;40108;53.152;5.844;2022-09-13T03:08:53;2.90;;;0.73;;
54201;SDS011;40108;53.152;5.844;2022-09-13T03:14:21;8.27;;;1.00;;
54201;SDS011;40108;53.152;5.844;2022-09-13T03:20:14;6.40;;;1.00;;
54201;SDS011;40108;53.152;5.844;2022-09-13T03:25:30;6.57;;;0.70;;
54201;SDS011;40108;53.152;5.844;2022-09-13T03:31:06;5.78;;;0.98;;
54201;SDS011;40108;53.152;5.844;2022-09-13T03:34:13;2.80;;;0.80;;
54201;SDS011;40108;53.152;5.844;2022-09-13T03:37:13;4.53;;;0.90;;
54201;SDS011;40108;53.152;5.844;2022-09-13T03:39:44;5.15;;;0.88;;
54201;SDS011;40108;53.152;5.844;2022-09-13T03:45:01;7.13;;;1.10;;
54201;SDS011;40108;53.152;5.844;2022-09-13T03:47:31;5.07;;;1.30;;
54201;SDS011;40108;53.152;5.844;2022-09-13T03:50:00;6.13;;;1.10;;
54201;SDS011;40108;53.152;5.844;2022-09-13T03:52:27;3.65;;;1.30;;
54201;SDS011;40108;53.152;5.844;2022-09-13T03:54:53;4.40;;;1.00;;
54201;SDS011;40108;53.152;5.844;2022-09-13T03:57:20;5.13;;;1.00;;
54201;SDS011;40108;53.152;5.844;2022-09-13T04:02:15;6.85;;;1.10;;
54201;SDS011;40108;53.152;5.844;2022-09-13T04:04:42;4.47;;;0.80;;
54201;SDS011;40108;53.152;5.844;2022-09-13T04:07:10;6.20;;;1.42;;
54201;SDS011;40108;53.152;5.844;2022-09-13T04:09:37;7.18;;;1.27;;
54201;SDS011;40108;53.152;5.844;2022-09-13T04:12:03;6.28;;;1.45;;
54201;SDS011;40108;53.152;5.844;2022-09-13T04:14:29;4.00;;;1.42;;
54201;SDS011;40108;53.152;5.844;2022-09-13T04:16:55;6.60;;;1.80;;
54201;SDS011;40108;53.152;5.844;2022-09-13T04:19:22;5.38;;;2.13;;
54201;SDS011;40108;53.152;5.844;2022-09-13T04:21:49;9.95;;;2.00;;
54201;SDS011;40108;53.152;5.844;2022-09-13T04:24:16;6.15;;;2.20;;
54201;SDS011;40108;53.152;5.844;2022-09-13T04:26:42;6.65;;;2.22;;
54201;SDS011;40108;53.152;5.844;2022-09-13T04:29:09;5.88;;;2.08;;
54201;SDS011;40108;53.152;5.844;2022-09-13T04:31:35;8.88;;;2.20;;
54201;SDS011;40108;53.152;5.844;2022-09-13T04:34:01;4.68;;;2.05;;
54201;SDS011;40108;53.152;5.844;2022-09-13T04:36:28;4.68;;;2.00;;
54201;SDS011;40108;53.152;5.844;2022-09-13T04:38:56;7.85;;;2.20;;
54201;SDS011;40108;53.152;5.844;2022-09-13T04:41:22;11.10;;;2.33;;
54201;SDS011;40108;53.152;5.844;2022-09-13T04:43:51;8.23;;;2.65;;
54201;SDS011;40108;53.152;5.844;2022-09-13T04:46:16;5.35;;;2.67;;
54201;SDS011;40108;53.152;5.844;2022-09-13T04:48:46;10.80;;;2.80;;
54201;SDS011;40108;53.152;5.844;2022-09-13T04:51:13;9.60;;;2.65;;
54201;SDS011;40108;53.152;5.844;2022-09-13T04:53:39;9.63;;;3.03;;
54201;SDS011;40108;53.152;5.844;2022-09-13T04:56:04;5.20;;;2.80;;
54201;SDS011;40108;53.152;5.844;2022-09-13T04:58:31;8.20;;;2.80;;
54201;SDS011;40108;53.152;5.844;2022-09-13T05:01:00;6.80;;;2.83;;
54201;SDS011;40108;53.152;5.844;2022-09-13T05:03:30;6.95;;;2.90;;
54201;SDS011;40108;53.152;5.844;2022-09-13T05:06:01;4.47;;;2.53;;
54201;SDS011;40108;53.152;5.844;2022-09-13T05:08:28;8.75;;;2.95;;
54201;SDS011;40108;53.152;5.844;2022-09-13T05:10:53;6.15;;;2.70;;
54201;SDS011;40108;53.152;5.844;2022-09-13T05:13:19;8.93;;;3.55;;
54201;SDS011;40108;53.152;5.844;2022-09-13T05:15:45;7.47;;;3.47;;
54201;SDS011;40108;53.152;5.844;2022-09-13T05:18:11;7.18;;;3.60;;
54201;SDS011;40108;53.152;5.844;2022-09-13T05:20:37;4.50;;;2.67;;
54201;SDS011;40108;53.152;5.844;2022-09-13T05:23:02;10.55;;;3.15;;
54201;SDS011;40108;53.152;5.844;2022-09-13T05:25:28;6.57;;;2.80;;
54201;SDS011;40108;53.152;5.844;2022-09-13T05:27:54;11.18;;;3.53;;
54201;SDS011;40108;53.152;5.844;2022-09-13T05:30:21;6.75;;;3.40;;
54201;SDS011;40108;53.152;5.844;2022-09-13T05:32:46;8.82;;;2.95;;
54201;SDS011;40108;53.152;5.844;2022-09-13T05:35:12;7.85;;;3.55;;
54201;SDS011;40108;53.152;5.844;2022-09-13T05:37:38;9.70;;;3.03;;
54201;SDS011;40108;53.152;5.844;2022-09-13T05:40:04;9.52;;;3.13;;
54201;SDS011;40108;53.152;5.844;2022-09-13T05:42:30;6.50;;;3.45;;
54201;SDS011;40108;53.152;5.844;2022-09-13T05:44:56;6.15;;;2.70;;
54201;SDS011;40108;53.152;5.844;2022-09-13T05:47:22;11.50;;;3.78;;
54201;SDS011;40108;53.152;5.844;2022-09-13T05:49:47;7.38;;;3.30;;
54201;SDS011;40108;53.152;5.844;2022-09-13T05:52:13;7.65;;;3.08;;
54201;SDS011;40108;53.152;5.844;2022-09-13T05:54:39;8.68;;;3.50;;
54201;SDS011;40108;53.152;5.844;2022-09-13T05:57:04;11.57;;;2.58;;
54201;SDS011;40108;53.152;5.844;2022-09-13T05:59:30;7.53;;;3.38;;
54201;SDS011;40108;53.152;5.844;2022-09-13T06:01:56;10.55;;;2.65;;
54201;SDS011;40108;53.152;5.844;2022-09-13T06:04:22;8.85;;;1.83;;
54201;SDS011;40108;53.152;5.844;2022-09-13T06:06:48;7.38;;;1.58;;
54201;SDS011;40108;53.152;5.844;2022-09-13T06:09:14;8.07;;;1.83;;
54201;SDS011;40108;53.152;5.844;2022-09-13T06:11:40;8.95;;;1.35;;
54201;SDS011;40108;53.152;5.844;2022-09-13T06:14:06;7.18;;;1.00;;
54201;SDS011;40108;53.152;5.844;2022-09-13T06:16:31;9.30;;;1.23;;
54201;SDS011;40108;53.152;5.844;2022-09-13T06:18:57;10.95;;;1.05;;
54201;SDS011;40108;53.152;5.844;2022-09-13T06:21:23;9.07;;;1.08;;
54201;SDS011;40108;53.152;5.844;2022-09-13T06:23:50;9.70;;;1.02;;
54201;SDS011;40108;53.152;5.844;2022-09-13T06:26:19;7.53;;;1.25;;
54201;SDS011;40108;53.152;5.844;2022-09-13T06:28:46;12.07;;;1.20;;
54201;SDS011;40108;53.152;5.844;2022-09-13T06:31:13;9.32;;;1.00;;
54201;SDS011;40108;53.152;5.844;2022-09-13T06:33:40;8.68;;;1.20;;
54201;SDS011;40108;53.152;5.844;2022-09-13T06:36:08;9.93;;;1.40;;
54201;SDS011;40108;53.152;5.844;2022-09-13T06:38:37;14.05;;;1.63;;
54201;SDS011;40108;53.152;5.844;2022-09-13T06:41:04;6.70;;;1.20;;
54201;SDS011;40108;53.152;5.844;2022-09-13T06:43:35;9.40;;;0.98;;
54201;SDS011;40108;53.152;5.844;2022-09-13T06:46:04;6.97;;;1.50;;
54201;SDS011;40108;53.152;5.844;2022-09-13T06:48:32;11.02;;;1.48;;
54201;SDS011;40108;53.152;5.844;2022-09-13T06:51:00;4.05;;;1.10;;
54201;SDS011;40108;53.152;5.844;2022-09-13T06:53:28;7.70;;;1.27;;
54201;SDS011;40108;53.152;5.844;2022-09-13T06:56:07;6.43;;;1.00;;
54201;SDS011;40108;53.152;5.844;2022-09-13T06:58:35;9.27;;;1.27;;
54201;SDS011;40108;53.152;5.844;2022-09-13T07:03:45;3.72;;;1.15;;
54201;SDS011;40108;53.152;5.844;2022-09-13T07:06:16;7.30;;;1.13;;
54201;SDS011;40108;53.152;5.844;2022-09-13T07:08:47;7.47;;;1.15;;
54201;SDS011;40108;53.152;5.844;2022-09-13T07:11:14;4.78;;;0.95;;
54201;SDS011;40108;53.152;5.844;2022-09-13T07:13:46;7.95;;;1.00;;
54201;SDS011;40108;53.152;5.844;2022-09-13T07:16:13;6.50;;;0.88;;
54201;SDS011;40108;53.152;5.844;2022-09-13T07:18:39;8.02;;;0.98;;
54201;SDS011;40108;53.152;5.844;2022-09-13T07:21:05;7.30;;;0.90;;
54201;SDS011;40108;53.152;5.844;2022-09-13T07:23:33;5.45;;;0.80;;
54201;SDS011;40108;53.152;5.844;2022-09-13T07:26:00;5.82;;;0.90;;
54201;SDS011;40108;53.152;5.844;2022-09-13T07:28:29;6.25;;;0.75;;
54201;SDS011;40108;53.152;5.844;2022-09-13T07:33:33;6.82;;;1.15;;
54201;SDS011;40108;53.152;5.844;2022-09-13T07:35:59;4.50;;;0.52;;
54201;SDS011;40108;53.152;5.844;2022-09-13T07:38:27;4.15;;;0.65;;
54201;SDS011;40108;53.152;5.844;2022-09-13T07:40:54;3.78;;;0.47;;
54201;SDS011;40108;53.152;5.844;2022-09-13T07:43:22;9.27;;;0.95;;
54201;SDS011;40108;53.152;5.844;2022-09-13T07:45:55;8.25;;;1.05;;
54201;SDS011;40108;53.152;5.844;2022-09-13T07:48:22;4.82;;;0.60;;
54201;SDS011;40108;53.152;5.844;2022-09-13T07:51:05;7.10;;;1.00;;
54201;SDS011;40108;53.152;5.844;2022-09-13T07:53:34;4.70;;;0.80;;
54201;SDS011;40108;53.152;5.844;2022-09-13T07:56:02;3.38;;;0.52;;
54201;SDS011;40108;53.152;5.844;2022-09-13T07:58:33;5.80;;;0.82;;
54201;SDS011;40108;53.152;5.844;2022-09-13T08:03:38;7.22;;;0.60;;
54201;SDS011;40108;53.152;5.844;2022-09-13T08:06:04;7.28;;;0.70;;
54201;SDS011;40108;53.152;5.844;2022-09-13T08:08:31;7.57;;;0.90;;
54201;SDS011;40108;53.152;5.844;2022-09-13T08:10:58;4.05;;;0.70;;
54201;SDS011;40108;53.152;5.844;2022-09-13T08:13:25;4.85;;;0.80;;
54201;SDS011;40108;53.152;5.844;2022-09-13T08:15:51;4.97;;;0.80;;
54201;SDS011;40108;53.152;5.844;2022-09-13T08:18:17;5.68;;;0.90;;
54201;SDS011;40108;53.152;5.844;2022-09-13T08:20:43;5.57;;;0.70;;
54201;SDS011;40108;53.152;5.844;2022-09-13T08:23:09;5.40;;;0.70;;
54201;SDS011;40108;53.152;5.844;2022-09-13T08:25:36;8.95;;;0.90;;
54201;SDS011;40108;53.152;5.844;2022-09-13T08:28:14;7.30;;;0.93;;
54201;SDS011;40108;53.152;5.844;2022-09-13T08:30:41;9.25;;;1.17;;
54201;SDS011;40108;53.152;5.844;2022-09-13T08:33:08;5.53;;;0.60;;
54201;SDS011;40108;53.152;5.844;2022-09-13T08:35:35;5.65;;;0.70;;
54201;SDS011;40108;53.152;5.844;2022-09-13T08:38:02;9.10;;;0.88;;
54201;SDS011;40108;53.152;5.844;2022-09-13T08:40:29;6.40;;;0.68;;
54201;SDS011;40108;53.152;5.844;2022-09-13T08:45:49;6.47;;;0.73;;
54201;SDS011;40108;53.152;5.844;2022-09-13T08:48:32;3.15;;;0.60;;
54201;SDS011;40108;53.152;5.844;2022-09-13T08:51:16;6.50;;;0.70;;
54201;SDS011;40108;53.152;5.844;2022-09-13T08:53:49;3.83;;;0.85;;
54201;SDS011;40108;53.152;5.844;2022-09-13T08:56:34;4.75;;;0.63;;
54201;SDS011;40108;53.152;5.844;2022-09-13T09:04:41;4.80;;;0.70;;
54201;SDS011;40108;53.152;5.844;2022-09-13T09:07:19;3.72;;;0.65;;
54201;SDS011;40108;53.152;5.844;2022-09-13T09:12:19;4.18;;;0.80;;
54201;SDS011;40108;53.152;5.844;2022-09-13T09:15:03;6.63;;;0.57;;
54201;SDS011;40108;53.152;5.844;2022-09-13T09:20:44;3.63;;;0.82;;
54201;SDS011;40108;53.152;5.844;2022-09-13T09:23:20;8.70;;;0.90;;
54201;SDS011;40108;53.152;5.844;2022-09-13T09:25:55;8.60;;;0.80;;
54201;SDS011;40108;53.152;5.844;2022-09-13T09:28:26;9.23;;;0.90;;
54201;SDS011;40108;53.152;5.844;2022-09-13T09:36:31;6.03;;;0.68;;
54201;SDS011;40108;53.152;5.844;2022-09-13T09:39:02;6.90;;;0.80;;
54201;SDS011;40108;53.152;5.844;2022-09-13T09:41:30;6.32;;;0.93;;
54201;SDS011;40108;53.152;5.844;2022-09-13T09:47:05;6.55;;;0.80;;
54201;SDS011;40108;53.152;5.844;2022-09-13T09:49:50;5.07;;;0.98;;
54201;SDS011;40108;53.152;5.844;2022-09-13T09:55:17;7.32;;;0.65;;
54201;SDS011;40108;53.152;5.844;2022-09-13T09:58:36;2.53;;;0.40;;
54201;SDS011;40108;53.152;5.844;2022-09-13T10:01:40;5.40;;;0.70;;
54201;SDS011;40108;53.152;5.844;2022-09-13T10:06:37;4.97;;;0.80;;
54201;SDS011;40108;53.152;5.844;2022-09-13T10:14:29;7.15;;;1.02;;
54201;SDS011;40108;53.152;5.844;2022-09-13T10:22:26;4.50;;;0.70;;
54201;SDS011;40108;53.152;5.844;2022-09-13T10:24:53;7.65;;;0.73;;
54201;SDS011;40108;53.152;5.844;2022-09-13T10:27:34;7.70;;;1.10;;
54201;SDS011;40108;53.152;5.844;2022-09-13T10:30:03;5.05;;;0.70;;
54201;SDS011;40108;53.152;5.844;2022-09-13T10:32:30;6.90;;;1.02;;
54201;SDS011;40108;53.152;5.844;2022-09-13T10:35:07;5.85;;;0.73;;
54201;SDS011;40108;53.152;5.844;2022-09-13T10:37:41;7.03;;;0.90;;
54201;SDS011;40108;53.152;5.844;2022-09-13T10:42:57;8.40;;;0.80;;
54201;SDS011;40108;53.152;5.844;2022-09-13T10:45:26;2.97;;;0.70;;
54201;SDS011;40108;53.152;5.844;2022-09-13T10:51:02;7.78;;;0.80;;
54201;SDS011;40108;53.152;5.844;2022-09-13T10:56:07;5.55;;;0.63;;
54201;SDS011;40108;53.152;5.844;2022-09-13T10:58:46;5.10;;;0.98;;
54201;SDS011;40108;53.152;5.844;2022-09-13T11:01:15;6.00;;;0.93;;
54201;SDS011;40108;53.152;5.844;2022-09-13T11:11:45;4.63;;;0.52;;
54201;SDS011;40108;53.152;5.844;2022-09-13T11:14:38;8.35;;;1.00;;
54201;SDS011;40108;53.152;5.844;2022-09-13T11:17:16;3.75;;;0.70;;
54201;SDS011;40108;53.152;5.844;2022-09-13T11:20:02;3.22;;;0.70;;
54201;SDS011;40108;53.152;5.844;2022-09-13T11:39:37;6.88;;;1.02;;
54201;SDS011;40108;53.152;5.844;2022-09-13T11:42:28;11.10;;;1.30;;
54201;SDS011;40108;53.152;5.844;2022-09-13T11:47:56;9.73;;;1.25;;
54201;SDS011;40108;53.152;5.844;2022-09-13T11:50:44;5.60;;;0.98;;
54201;SDS011;40108;53.152;5.844;2022-09-13T11:56:10;7.13;;;1.20;;
54201;SDS011;40108;53.152;5.844;2022-09-13T11:58:45;4.82;;;0.93;;
54201;SDS011;40108;53.152;5.844;2022-09-13T12:01:30;9.95;;;1.23;;
54201;SDS011;40108;53.152;5.844;2022-09-13T12:04:03;8.32;;;1.10;;
54201;SDS011;40108;53.152;5.844;2022-09-13T12:06:54;7.30;;;1.07;;
54201;SDS011;40108;53.152;5.844;2022-09-13T12:09:26;7.05;;;1.20;;
54201;SDS011;40108;53.152;5.844;2022-09-13T12:12:17;7.65;;;1.52;;
54201;SDS011;40108;53.152;5.844;2022-09-13T12:14:48;8.95;;;1.20;;
54201;SDS011;40108;53.152;5.844;2022-09-13T12:17:23;8.38;;;0.98;;
54201;SDS011;40108;53.152;5.844;2022-09-13T12:19:50;7.25;;;1.10;;
54201;SDS011;40108;53.152;5.844;2022-09-13T12:22:19;8.20;;;1.05;;
54201;SDS011;40108;53.152;5.844;2022-09-13T12:24:52;3.70;;;0.90;;
54201;SDS011;40108;53.152;5.844;2022-09-13T12:27:23;8.77;;;1.20;;
54201;SDS011;40108;53.152;5.844;2022-09-13T12:30:31;5.07;;;1.13;;
54201;SDS011;40108;53.152;5.844;2022-09-13T12:32:49;5.93;;;1.45;;
54201;SDS011;40108;53.152;5.844;2022-09-13T12:43:34;10.38;;;1.20;;
54201;SDS011;40108;53.152;5.844;2022-09-13T12:54:52;10.15;;;1.60;;
54201;SDS011;40108;53.152;5.844;2022-09-13T12:58:03;8.15;;;1.10;;
54201;SDS011;40108;53.152;5.844;2022-09-13T13:00:41;7.80;;;0.93;;
54201;SDS011;40108;53.152;5.844;2022-09-13T13:03:22;6.85;;;0.85;;
54201;SDS011;40108;53.152;5.844;2022-09-13T13:08:59;8.13;;;1.25;;
54201;SDS011;40108;53.152;5.844;2022-09-13T13:11:39;7.22;;;1.08;;
54201;SDS011;40108;53.152;5.844;2022-09-13T13:14:10;7.75;;;1.65;;
54201;SDS011;40108;53.152;5.844;2022-09-13T13:17:33;4.78;;;0.80;;
54201;SDS011;40108;53.152;5.844;2022-09-13T13:19:58;5.22;;;0.90;;
54201;SDS011;40108;53.152;5.844;2022-09-13T13:25:25;6.03;;;0.90;;
54201;SDS011;40108;53.152;5.844;2022-09-13T13:27:57;7.43;;;1.15;;
54201;SDS011;40108;53.152;5.844;2022-09-13T13:30:33;3.88;;;0.98;;
54201;SDS011;40108;53.152;5.844;2022-09-13T13:35:43;8.82;;;1.00;;
54201;SDS011;40108;53.152;5.844;2022-09-13T13:38:44;6.28;;;1.02;;
54201;SDS011;40108;53.152;5.844;2022-09-13T13:41:06;8.85;;;1.30;;
54201;SDS011;40108;53.152;5.844;2022-09-13T13:43:52;8.68;;;1.00;;
54201;SDS011;40108;53.152;5.844;2022-09-13T13:46:23;7.03;;;1.10;;
54201;SDS011;40108;53.152;5.844;2022-09-13T13:48:50;7.18;;;1.20;;
54201;SDS011;40108;53.152;5.844;2022-09-13T13:51:18;5.25;;;1.60;;
54201;SDS011;40108;53.152;5.844;2022-09-13T13:53:53;7.05;;;1.80;;
54201;SDS011;40108;53.152;5.844;2022-09-13T13:59:13;4.47;;;0.90;;
54201;SDS011;40108;53.152;5.844;2022-09-13T14:01:45;8.77;;;0.82;;
54201;SDS011;40108;53.152;5.844;2022-09-13T14:09:42;9.07;;;0.93;;
54201;SDS011;40108;53.152;5.844;2022-09-13T14:12:27;5.70;;;1.00;;
54201;SDS011;40108;53.152;5.844;2022-09-13T14:15:00;8.30;;;0.90;;
54201;SDS011;40108;53.152;5.844;2022-09-13T14:20:20;7.75;;;0.98;;
54201;SDS011;40108;53.152;5.844;2022-09-13T14:22:46;6.68;;;0.85;;
54201;SDS011;40108;53.152;5.844;2022-09-13T14:27:44;9.77;;;1.10;;
54201;SDS011;40108;53.152;5.844;2022-09-13T14:30:22;7.07;;;1.20;;
54201;SDS011;40108;53.152;5.844;2022-09-13T14:32:52;4.60;;;0.85;;
54201;SDS011;40108;53.152;5.844;2022-09-13T14:38:18;5.13;;;0.73;;
54201;SDS011;40108;53.152;5.844;2022-09-13T14:40:50;4.22;;;0.95;;
54201;SDS011;40108;53.152;5.844;2022-09-13T14:43:22;6.22;;;0.70;;
54201;SDS011;40108;53.152;5.844;2022-09-13T14:45:58;6.20;;;1.17;;
54201;SDS011;40108;53.152;5.844;2022-09-13T14:48:31;7.80;;;0.90;;
54201;SDS011;40108;53.152;5.844;2022-09-13T14:51:11;8.25;;;1.10;;
54201;SDS011;40108;53.152;5.844;2022-09-13T14:53:48;6.63;;;1.10;;
54201;SDS011;40108;53.152;5.844;2022-09-13T14:56:22;6.20;;;0.95;;
54201;SDS011;40108;53.152;5.844;2022-09-13T15:01:57;6.45;;;0.90;;
54201;SDS011;40108;53.152;5.844;2022-09-13T15:04:29;4.03;;;0.75;;
54201;SDS011;40108;53.152;5.844;2022-09-13T15:09:47;7.82;;;0.70;;
54201;SDS011;40108;53.152;5.844;2022-09-13T15:12:24;9.43;;;1.60;;
54201;SDS011;40108;53.152;5.844;2022-09-13T15:18:21;8.48;;;1.08;;
54201;SDS011;40108;53.152;5.844;2022-09-13T15:20:45;9.82;;;1.20;;
54201;SDS011;40108;53.152;5.844;2022-09-13T15:23:16;11.05;;;0.80;;
54201;SDS011;40108;53.152;5.844;2022-09-13T15:25:54;7.15;;;0.80;;
54201;SDS011;40108;53.152;5.844;2022-09-13T15:28:24;8.68;;;1.30;;
54201;SDS011;40108;53.152;5.844;2022-09-13T15:30:52;5.97;;;1.05;;
54201;SDS011;40108;53.152;5.844;2022-09-13T15:33:37;11.93;;;1.00;;
54201;SDS011;40108;53.152;5.844;2022-09-13T15:38:57;5.70;;;0.70;;
54201;SDS011;40108;53.152;5.844;2022-09-13T15:41:33;6.53;;;0.80;;
54201;SDS011;40108;53.152;5.844;2022-09-13T15:44:00;5.57;;;1.00;;
54201;SDS011;40108;53.152;5.844;2022-09-13T15:46:26;6.40;;;0.80;;
54201;SDS011;40108;53.152;5.844;2022-09-13T15:48:54;4.70;;;0.88;;
54201;SDS011;40108;53.152;5.844;2022-09-13T15:51:26;6.05;;;0.70;;
54201;SDS011;40108;53.152;5.844;2022-09-13T15:53:52;4.60;;;0.75;;
54201;SDS011;40108;53.152;5.844;2022-09-13T15:56:24;7.32;;;1.17;;
54201;SDS011;40108;53.152;5.844;2022-09-13T15:58:58;7.45;;;0.73;;
54201;SDS011;40108;53.152;5.844;2022-09-13T16:01:24;6.82;;;1.00;;
54201;SDS011;40108;53.152;5.844;2022-09-13T16:03:51;6.00;;;1.33;;
54201;SDS011;40108;53.152;5.844;2022-09-13T16:06:17;5.57;;;0.98;;
54201;SDS011;40108;53.152;5.844;2022-09-13T16:08:43;7.85;;;0.70;;
54201;SDS011;40108;53.152;5.844;2022-09-13T16:11:09;6.72;;;0.80;;
54201;SDS011;40108;53.152;5.844;2022-09-13T16:13:35;8.82;;;0.98;;
54201;SDS011;40108;53.152;5.844;2022-09-13T16:16:01;7.32;;;1.30;;
54201;SDS011;40108;53.152;5.844;2022-09-13T16:18:27;7.00;;;0.85;;
54201;SDS011;40108;53.152;5.844;2022-09-13T16:20:52;8.57;;;1.00;;
54201;SDS011;40108;53.152;5.844;2022-09-13T16:23:18;8.13;;;0.80;;
54201;SDS011;40108;53.152;5.844;2022-09-13T16:25:44;4.93;;;0.90;;
54201;SDS011;40108;53.152;5.844;2022-09-13T16:28:16;4.45;;;0.80;;
54201;SDS011;40108;53.152;5.844;2022-09-13T16:30:45;5.45;;;0.82;;
54201;SDS011;40108;53.152;5.844;2022-09-13T16:33:11;8.68;;;0.95;;
54201;SDS011;40108;53.152;5.844;2022-09-13T16:35:37;7.13;;;0.90;;
54201;SDS011;40108;53.152;5.844;2022-09-13T16:38:03;9.13;;;0.73;;
54201;SDS011;40108;53.152;5.844;2022-09-13T16:40:28;7.20;;;1.08;;
54201;SDS011;40108;53.152;5.844;2022-09-13T16:42:54;8.15;;;0.60;;
54201;SDS011;40108;53.152;5.844;2022-09-13T16:45:20;6.05;;;1.00;;
54201;SDS011;40108;53.152;5.844;2022-09-13T16:47:46;7.30;;;1.00;;
54201;SDS011;40108;53.152;5.844;2022-09-13T16:50:12;7.65;;;0.85;;
54201;SDS011;40108;53.152;5.844;2022-09-13T16:52:38;5.78;;;0.82;;
54201;SDS011;40108;53.152;5.844;2022-09-13T16:55:04;4.85;;;0.90;;
54201;SDS011;40108;53.152;5.844;2022-09-13T16:57:31;7.47;;;0.75;;
54201;SDS011;40108;53.152;5.844;2022-09-13T16:59:57;6.63;;;0.80;;
54201;SDS011;40108;53.152;5.844;2022-09-13T17:02:24;8.68;;;0.90;;
54201;SDS011;40108;53.152;5.844;2022-09-13T17:04:50;6.88;;;0.68;;
54201;SDS011;40108;53.152;5.844;2022-09-13T17:07:16;5.57;;;0.80;;
54201;SDS011;40108;53.152;5.844;2022-09-13T17:09:42;7.38;;;0.55;;
54201;SDS011;40108;53.152;5.844;2022-09-13T17:12:09;6.55;;;0.63;;
54201;SDS011;40108;53.152;5.844;2022-09-13T17:14:38;8.35;;;0.80;;
54201;SDS011;40108;53.152;5.844;2022-09-13T17:17:11;5.15;;;0.60;;
54201;SDS011;40108;53.152;5.844;2022-09-13T17:19:39;4.00;;;0.80;;
54201;SDS011;40108;53.152;5.844;2022-09-13T17:22:05;4.68;;;0.85;;
54201;SDS011;40108;53.152;5.844;2022-09-13T17:24:32;5.53;;;0.50;;
54201;SDS011;40108;53.152;5.844;2022-09-13T17:26:58;3.50;;;0.57;;
54201;SDS011;40108;53.152;5.844;2022-09-13T17:29:24;5.93;;;0.70;;
54201;SDS011;40108;53.152;5.844;2022-09-13T17:31:55;7.28;;;0.70;;
54201;SDS011;40108;53.152;5.844;2022-09-13T17:34:30;6.75;;;0.60;;
54201;SDS011;40108;53.152;5.844;2022-09-13T17:36:57;4.05;;;0.70;;
54201;SDS011;40108;53.152;5.844;2022-09-13T17:39:23;3.53;;;0.95;;
54201;SDS011;40108;53.152;5.844;2022-09-13T17:41:49;3.85;;;0.80;;
54201;SDS011;40108;53.152;5.844;2022-09-13T17:44:15;4.45;;;0.60;;
54201;SDS011;40108;53.152;5.844;2022-09-13T17:46:41;5.95;;;0.75;;
54201;SDS011;40108;53.152;5.844;2022-09-13T17:49:07;4.13;;;0.45;;
54201;SDS011;40108;53.152;5.844;2022-09-13T17:51:33;3.60;;;0.40;;
54201;SDS011;40108;53.152;5.844;2022-09-13T17:54:03;6.82;;;0.75;;
54201;SDS011;40108;53.152;5.844;2022-09-13T17:56:34;3.53;;;0.60;;
54201;SDS011;40108;53.152;5.844;2022-09-13T17:59:06;4.80;;;0.77;;
54201;SDS011;40108;53.152;5.844;2022-09-13T18:01:35;3.30;;;0.60;;
54201;SDS011;40108;53.152;5.844;2022-09-13T18:04:02;2.95;;;0.70;;
54201;SDS011;40108;53.152;5.844;2022-09-13T18:06:28;4.53;;;0.60;;
54201;SDS011;40108;53.152;5.844;2022-09-13T18:08:54;4.43;;;0.90;;
54201;SDS011;40108;53.152;5.844;2022-09-13T18:11:20;4.40;;;0.60;;
54201;SDS011;40108;53.152;5.844;2022-09-13T18:13:46;5.10;;;1.08;;
54201;SDS011;40108;53.152;5.844;2022-09-13T18:16:13;3.42;;;0.52;;
54201;SDS011;40108;53.152;5.844;2022-09-13T18:18:41;4.15;;;0.57;;
54201;SDS011;40108;53.152;5.844;2022-09-13T18:21:10;3.70;;;0.55;;
54201;SDS011;40108;53.152;5.844;2022-09-13T18:23:38;2.80;;;0.60;;
54201;SDS011;40108;53.152;5.844;2022-09-13T18:26:06;2.22;;;0.50;;
54201;SDS011;40108;53.152;5.844;2022-09-13T18:28:37;7.50;;;1.17;;
54201;SDS011;40108;53.152;5.844;2022-09-13T18:31:04;4.85;;;0.90;;